sensor_id;sensor_type;location;lat;lon;timestamp;temperature;humidity
20400;DHT22;10359;53.596;22.520;2023-03-01T00:01:31;2.10;99.90
20400;DHT22;10359;53.596;22.520;2023-03-01T00:04:21;2.10;99.90
20400;DHT22;10359;53.596;22.520;2023-03-01T00:07:10;2.10;99.90
20400;DHT22;10359;53.596;22.520;2023-03-01T00:10:00;2.10;99.90
20400;DHT22;10359;53.596;22.520;2023-03-01T00:12:52;2.10;99.90
20400;DHT22;10359;53.596;22.520;2023-03-01T00:15:43;2.10;99.90
20400;DHT22;10359;53.596;22.520;2023-03-01T00:18:33;2.20;99.90
20400;DHT22;10359;53.596;22.520;2023-03-01T00:21:23;2.20;99.90
20400;DHT22;10359;53.596;22.520;2023-03-01T00:24:14;2.20;99.90
20400;DHT22;10359;53.596;22.520;2023-03-01T00:27:04;2.20;99.90
20400;DHT22;10359;53.596;22.520;2023-03-01T00:29:56;2.30;99.90
20400;DHT22;10359;53.596;22.520;2023-03-01T00:32:46;2.20;99.90
20400;DHT22;10359;53.596;22.520;2023-03-01T00:35:38;2.20;99.90
20400;DHT22;10359;53.596;22.520;2023-03-01T00:38:34;2.20;99.90
20400;DHT22;10359;53.596;22.520;2023-03-01T00:41:24;2.10;99.90
20400;DHT22;10359;53.596;22.520;2023-03-01T00:44:16;2.20;99.90
20400;DHT22;10359;53.596;22.520;2023-03-01T00:47:07;2.10;99.90
20400;DHT22;10359;53.596;22.520;2023-03-01T00:49:58;2.20;99.90
20400;DHT22;10359;53.596;22.520;2023-03-01T00:52:52;2.30;99.90
20400;DHT22;10359;53.596;22.520;2023-03-01T00:55:43;2.30;99.90
20400;DHT22;10359;53.596;22.520;2023-03-01T00:58:33;2.40;99.90
20400;DHT22;10359;53.596;22.520;2023-03-01T01:01:26;2.40;99.90
20400;DHT22;10359;53.596;22.520;2023-03-01T01:04:20;2.30;99.90
20400;DHT22;10359;53.596;22.520;2023-03-01T01:07:12;2.30;99.90
20400;DHT22;10359;53.596;22.520;2023-03-01T01:10:03;2.20;99.90
20400;DHT22;10359;53.596;22.520;2023-03-01T01:12:54;2.40;99.90
20400;DHT22;10359;53.596;22.520;2023-03-01T01:15:44;2.20;99.90
20400;DHT22;10359;53.596;22.520;2023-03-01T01:18:35;2.30;99.90
20400;DHT22;10359;53.596;22.520;2023-03-01T01:21:27;2.20;99.90
20400;DHT22;10359;53.596;22.520;2023-03-01T01:24:19;2.20;99.90
20400;DHT22;10359;53.596;22.520;2023-03-01T01:27:11;2.20;99.90
20400;DHT22;10359;53.596;22.520;2023-03-01T01:30:01;2.10;99.90
20400;DHT22;10359;53.596;22.520;2023-03-01T01:32:51;2.20;99.90
20400;DHT22;10359;53.596;22.520;2023-03-01T01:35:44;2.30;99.90
20400;DHT22;10359;53.596;22.520;2023-03-01T01:38:37;2.40;99.90
20400;DHT22;10359;53.596;22.520;2023-03-01T01:41:28;2.20;99.90
20400;DHT22;10359;53.596;22.520;2023-03-01T01:44:20;2.30;99.90
20400;DHT22;10359;53.596;22.520;2023-03-01T01:47:14;2.30;99.90
20400;DHT22;10359;53.596;22.520;2023-03-01T01:50:15;2.30;99.90
20400;DHT22;10359;53.596;22.520;2023-03-01T01:53:11;2.40;99.90
20400;DHT22;10359;53.596;22.520;2023-03-01T01:56:06;2.30;99.90
20400;DHT22;10359;53.596;22.520;2023-03-01T01:58:56;2.40;99.90
20400;DHT22;10359;53.596;22.520;2023-03-01T02:01:47;2.30;99.90
20400;DHT22;10359;53.596;22.520;2023-03-01T02:04:37;2.40;1.00
20400;DHT22;10359;53.596;22.520;2023-03-01T02:07:27;2.30;1.00
20400;DHT22;10359;53.596;22.520;2023-03-01T02:13:08;2.20;1.00
20400;DHT22;10359;53.596;22.520;2023-03-01T02:15:58;2.10;1.00
20400;DHT22;10359;53.596;22.520;2023-03-01T02:18:50;2.00;1.00
20400;DHT22;10359;53.596;22.520;2023-03-01T02:21:46;1.80;1.00
20400;DHT22;10359;53.596;22.520;2023-03-01T02:24:45;1.70;1.00
20400;DHT22;10359;53.596;22.520;2023-03-01T02:27:41;1.50;1.00
20400;DHT22;10359;53.596;22.520;2023-03-01T02:30:37;1.40;1.00
20400;DHT22;10359;53.596;22.520;2023-03-01T02:33:47;1.30;1.00
20400;DHT22;10359;53.596;22.520;2023-03-01T02:36:40;1.10;1.00
20400;DHT22;10359;53.596;22.520;2023-03-01T02:39:33;0.90;1.00
20400;DHT22;10359;53.596;22.520;2023-03-01T02:42:39;0.70;1.00
20400;DHT22;10359;53.596;22.520;2023-03-01T02:45:30;0.60;1.00
20400;DHT22;10359;53.596;22.520;2023-03-01T02:48:21;0.50;1.00
20400;DHT22;10359;53.596;22.520;2023-03-01T02:51:26;0.40;1.00
20400;DHT22;10359;53.596;22.520;2023-03-01T02:54:21;0.40;1.00
20400;DHT22;10359;53.596;22.520;2023-03-01T02:57:14;0.30;1.00
20400;DHT22;10359;53.596;22.520;2023-03-01T03:00:09;0.20;1.00
20400;DHT22;10359;53.596;22.520;2023-03-01T03:03:08;0.20;1.00
20400;DHT22;10359;53.596;22.520;2023-03-01T03:05:59;0.10;1.00
20400;DHT22;10359;53.596;22.520;2023-03-01T03:08:51;0.10;1.00
20400;DHT22;10359;53.596;22.520;2023-03-01T03:11:42;0.10;1.00
20400;DHT22;10359;53.596;22.520;2023-03-01T03:14:32;0.00;1.00
20400;DHT22;10359;53.596;22.520;2023-03-01T03:17:22;0.10;1.00
20400;DHT22;10359;53.596;22.520;2023-03-01T03:20:14;0.10;1.00
20400;DHT22;10359;53.596;22.520;2023-03-01T03:23:10;0.00;1.00
20400;DHT22;10359;53.596;22.520;2023-03-01T03:25:59;0.00;1.00
20400;DHT22;10359;53.596;22.520;2023-03-01T03:28:49;0.00;1.00
20400;DHT22;10359;53.596;22.520;2023-03-01T03:31:39;0.00;1.00
20400;DHT22;10359;53.596;22.520;2023-03-01T03:34:29;0.10;1.00
20400;DHT22;10359;53.596;22.520;2023-03-01T03:37:18;0.00;1.00
20400;DHT22;10359;53.596;22.520;2023-03-01T03:40:23;0.10;1.00
20400;DHT22;10359;53.596;22.520;2023-03-01T03:43:15;0.30;1.00
20400;DHT22;10359;53.596;22.520;2023-03-01T03:46:06;0.40;1.00
20400;DHT22;10359;53.596;22.520;2023-03-01T03:48:56;0.50;1.00
20400;DHT22;10359;53.596;22.520;2023-03-01T03:51:45;0.60;1.00
20400;DHT22;10359;53.596;22.520;2023-03-01T03:54:39;0.70;1.00
20400;DHT22;10359;53.596;22.520;2023-03-01T03:57:30;0.90;1.00
20400;DHT22;10359;53.596;22.520;2023-03-01T04:00:21;1.00;1.00
20400;DHT22;10359;53.596;22.520;2023-03-01T04:03:13;1.10;1.00
20400;DHT22;10359;53.596;22.520;2023-03-01T04:06:04;1.20;1.00
20400;DHT22;10359;53.596;22.520;2023-03-01T04:08:54;1.20;1.00
20400;DHT22;10359;53.596;22.520;2023-03-01T04:11:48;1.40;1.00
20400;DHT22;10359;53.596;22.520;2023-03-01T04:14:39;1.50;1.00
20400;DHT22;10359;53.596;22.520;2023-03-01T04:17:29;1.60;1.00
20400;DHT22;10359;53.596;22.520;2023-03-01T04:20:21;1.70;1.00
20400;DHT22;10359;53.596;22.520;2023-03-01T04:23:14;1.70;1.00
20400;DHT22;10359;53.596;22.520;2023-03-01T04:26:07;1.80;1.00
20400;DHT22;10359;53.596;22.520;2023-03-01T04:28:57;1.90;1.00
20400;DHT22;10359;53.596;22.520;2023-03-01T04:31:49;1.90;1.00
20400;DHT22;10359;53.596;22.520;2023-03-01T04:34:39;2.00;1.00
20400;DHT22;10359;53.596;22.520;2023-03-01T04:37:28;2.00;1.00
20400;DHT22;10359;53.596;22.520;2023-03-01T04:40:19;2.00;1.00
20400;DHT22;10359;53.596;22.520;2023-03-01T04:43:10;2.10;1.00
20400;DHT22;10359;53.596;22.520;2023-03-01T04:46:01;2.20;1.00
20400;DHT22;10359;53.596;22.520;2023-03-01T04:48:53;2.20;1.00
20400;DHT22;10359;53.596;22.520;2023-03-01T04:51:43;2.20;1.00
20400;DHT22;10359;53.596;22.520;2023-03-01T04:54:34;2.20;1.00
20400;DHT22;10359;53.596;22.520;2023-03-01T04:57:24;2.20;1.00
20400;DHT22;10359;53.596;22.520;2023-03-01T05:00:14;2.30;1.00
20400;DHT22;10359;53.596;22.520;2023-03-01T05:03:10;2.30;1.00
20400;DHT22;10359;53.596;22.520;2023-03-01T05:06:01;2.40;1.00
20400;DHT22;10359;53.596;22.520;2023-03-01T05:08:51;2.50;1.00
20400;DHT22;10359;53.596;22.520;2023-03-01T05:11:41;2.50;1.00
20400;DHT22;10359;53.596;22.520;2023-03-01T05:14:31;2.40;1.00
20400;DHT22;10359;53.596;22.520;2023-03-01T05:17:21;2.50;1.00
20400;DHT22;10359;53.596;22.520;2023-03-01T05:20:12;2.60;1.00
20400;DHT22;10359;53.596;22.520;2023-03-01T05:23:03;2.60;1.00
20400;DHT22;10359;53.596;22.520;2023-03-01T05:25:57;2.60;1.00
20400;DHT22;10359;53.596;22.520;2023-03-01T05:28:47;2.60;1.00
20400;DHT22;10359;53.596;22.520;2023-03-01T05:31:37;2.60;1.00
20400;DHT22;10359;53.596;22.520;2023-03-01T05:34:29;2.60;1.00
20400;DHT22;10359;53.596;22.520;2023-03-01T05:37:19;2.70;1.00
20400;DHT22;10359;53.596;22.520;2023-03-01T05:40:14;2.70;1.00
20400;DHT22;10359;53.596;22.520;2023-03-01T05:43:04;2.70;1.00
20400;DHT22;10359;53.596;22.520;2023-03-01T05:45:54;2.70;1.00
20400;DHT22;10359;53.596;22.520;2023-03-01T05:48:50;2.70;1.00
20400;DHT22;10359;53.596;22.520;2023-03-01T05:51:39;2.70;1.00
20400;DHT22;10359;53.596;22.520;2023-03-01T05:54:30;2.80;1.00
20400;DHT22;10359;53.596;22.520;2023-03-01T05:57:22;2.80;1.00
20400;DHT22;10359;53.596;22.520;2023-03-01T06:00:18;2.80;1.00
20400;DHT22;10359;53.596;22.520;2023-03-01T06:03:11;2.80;1.00
20400;DHT22;10359;53.596;22.520;2023-03-01T06:06:01;2.70;1.00
20400;DHT22;10359;53.596;22.520;2023-03-01T06:08:51;2.90;1.00
20400;DHT22;10359;53.596;22.520;2023-03-01T06:11:41;3.00;1.00
20400;DHT22;10359;53.596;22.520;2023-03-01T06:14:32;3.10;1.00
20400;DHT22;10359;53.596;22.520;2023-03-01T06:17:22;3.10;1.00
20400;DHT22;10359;53.596;22.520;2023-03-01T06:20:15;3.20;1.00
20400;DHT22;10359;53.596;22.520;2023-03-01T06:23:05;3.30;1.00
20400;DHT22;10359;53.596;22.520;2023-03-01T06:25:57;3.20;1.00
20400;DHT22;10359;53.596;22.520;2023-03-01T06:28:46;3.30;1.00
20400;DHT22;10359;53.596;22.520;2023-03-01T06:31:38;3.20;1.00
20400;DHT22;10359;53.596;22.520;2023-03-01T06:34:28;3.40;1.00
20400;DHT22;10359;53.596;22.520;2023-03-01T06:37:18;3.50;1.00
20400;DHT22;10359;53.596;22.520;2023-03-01T06:40:09;3.50;1.00
20400;DHT22;10359;53.596;22.520;2023-03-01T06:43:01;3.60;1.00
20400;DHT22;10359;53.596;22.520;2023-03-01T06:45:51;3.70;1.00
20400;DHT22;10359;53.596;22.520;2023-03-01T06:48:42;3.60;1.00
20400;DHT22;10359;53.596;22.520;2023-03-01T06:51:32;3.60;1.00
20400;DHT22;10359;53.596;22.520;2023-03-01T06:54:22;3.70;1.00
20400;DHT22;10359;53.596;22.520;2023-03-01T06:57:12;3.80;1.00
20400;DHT22;10359;53.596;22.520;2023-03-01T07:00:02;3.90;1.00
20400;DHT22;10359;53.596;22.520;2023-03-01T07:02:52;4.10;1.00
20400;DHT22;10359;53.596;22.520;2023-03-01T07:05:43;4.20;1.00
20400;DHT22;10359;53.596;22.520;2023-03-01T07:08:33;4.30;1.00
20400;DHT22;10359;53.596;22.520;2023-03-01T07:11:23;4.30;99.90
20400;DHT22;10359;53.596;22.520;2023-03-01T07:14:13;4.30;99.90
20400;DHT22;10359;53.596;22.520;2023-03-01T07:17:03;4.30;99.90
20400;DHT22;10359;53.596;22.520;2023-03-01T07:19:52;4.40;99.90
20400;DHT22;10359;53.596;22.520;2023-03-01T07:22:44;4.40;99.90
20400;DHT22;10359;53.596;22.520;2023-03-01T07:25:33;4.40;99.90
20400;DHT22;10359;53.596;22.520;2023-03-01T07:28:24;4.30;99.90
20400;DHT22;10359;53.596;22.520;2023-03-01T07:31:14;4.30;99.90
20400;DHT22;10359;53.596;22.520;2023-03-01T07:34:04;4.40;99.90
20400;DHT22;10359;53.596;22.520;2023-03-01T07:36:54;4.60;99.90
20400;DHT22;10359;53.596;22.520;2023-03-01T07:39:46;4.60;99.90
20400;DHT22;10359;53.596;22.520;2023-03-01T07:42:36;4.70;99.90
20400;DHT22;10359;53.596;22.520;2023-03-01T07:45:27;4.70;99.90
20400;DHT22;10359;53.596;22.520;2023-03-01T07:48:16;4.70;99.90
20400;DHT22;10359;53.596;22.520;2023-03-01T07:51:07;4.70;99.90
20400;DHT22;10359;53.596;22.520;2023-03-01T07:53:56;4.60;99.90
20400;DHT22;10359;53.596;22.520;2023-03-01T07:56:49;4.70;99.90
20400;DHT22;10359;53.596;22.520;2023-03-01T07:59:39;4.60;99.90
20400;DHT22;10359;53.596;22.520;2023-03-01T08:02:29;4.60;99.90
20400;DHT22;10359;53.596;22.520;2023-03-01T08:05:19;4.70;99.90
20400;DHT22;10359;53.596;22.520;2023-03-01T08:08:10;4.90;99.90
20400;DHT22;10359;53.596;22.520;2023-03-01T08:11:01;5.10;99.90
20400;DHT22;10359;53.596;22.520;2023-03-01T08:13:53;5.30;99.90
20400;DHT22;10359;53.596;22.520;2023-03-01T08:16:44;5.10;99.90
20400;DHT22;10359;53.596;22.520;2023-03-01T08:19:33;5.20;99.90
20400;DHT22;10359;53.596;22.520;2023-03-01T08:22:24;5.40;99.90
20400;DHT22;10359;53.596;22.520;2023-03-01T08:25:14;5.40;99.90
20400;DHT22;10359;53.596;22.520;2023-03-01T08:28:04;5.40;99.90
20400;DHT22;10359;53.596;22.520;2023-03-01T08:30:56;5.40;99.90
20400;DHT22;10359;53.596;22.520;2023-03-01T08:33:48;5.40;99.90
20400;DHT22;10359;53.596;22.520;2023-03-01T08:36:44;5.30;99.90
20400;DHT22;10359;53.596;22.520;2023-03-01T08:39:34;5.40;99.90
20400;DHT22;10359;53.596;22.520;2023-03-01T08:42:24;5.20;99.90
20400;DHT22;10359;53.596;22.520;2023-03-01T08:45:15;5.30;99.90
20400;DHT22;10359;53.596;22.520;2023-03-01T08:48:07;5.20;99.90
20400;DHT22;10359;53.596;22.520;2023-03-01T08:51:07;5.40;99.90
20400;DHT22;10359;53.596;22.520;2023-03-01T08:53:56;5.40;99.90
20400;DHT22;10359;53.596;22.520;2023-03-01T08:56:47;5.50;99.90
20400;DHT22;10359;53.596;22.520;2023-03-01T08:59:36;5.20;99.90
20400;DHT22;10359;53.596;22.520;2023-03-01T09:02:26;5.10;99.90
20400;DHT22;10359;53.596;22.520;2023-03-01T09:05:18;5.20;99.90
20400;DHT22;10359;53.596;22.520;2023-03-01T09:08:10;5.10;99.90
20400;DHT22;10359;53.596;22.520;2023-03-01T09:11:01;5.20;99.90
20400;DHT22;10359;53.596;22.520;2023-03-01T09:13:51;5.30;99.90
20400;DHT22;10359;53.596;22.520;2023-03-01T09:16:42;5.50;99.90
20400;DHT22;10359;53.596;22.520;2023-03-01T09:19:33;5.50;99.90
20400;DHT22;10359;53.596;22.520;2023-03-01T09:22:28;5.70;99.90
20400;DHT22;10359;53.596;22.520;2023-03-01T09:25:25;5.70;99.90
20400;DHT22;10359;53.596;22.520;2023-03-01T09:28:23;5.80;99.90
20400;DHT22;10359;53.596;22.520;2023-03-01T09:31:22;5.60;99.90
20400;DHT22;10359;53.596;22.520;2023-03-01T09:34:16;5.50;99.90
20400;DHT22;10359;53.596;22.520;2023-03-01T09:37:11;5.50;99.90
20400;DHT22;10359;53.596;22.520;2023-03-01T09:40:06;5.40;99.90
20400;DHT22;10359;53.596;22.520;2023-03-01T09:43:03;5.50;99.90
20400;DHT22;10359;53.596;22.520;2023-03-01T09:45:58;5.30;99.90
20400;DHT22;10359;53.596;22.520;2023-03-01T09:48:52;5.30;99.90
20400;DHT22;10359;53.596;22.520;2023-03-01T09:51:44;5.30;99.90
20400;DHT22;10359;53.596;22.520;2023-03-01T09:54:37;5.40;99.90
20400;DHT22;10359;53.596;22.520;2023-03-01T09:57:35;5.30;99.90
20400;DHT22;10359;53.596;22.520;2023-03-01T10:00:33;5.30;99.90
20400;DHT22;10359;53.596;22.520;2023-03-01T10:03:30;5.50;99.90
20400;DHT22;10359;53.596;22.520;2023-03-01T10:06:23;5.40;99.90
20400;DHT22;10359;53.596;22.520;2023-03-01T10:09:22;5.50;99.90
20400;DHT22;10359;53.596;22.520;2023-03-01T10:12:14;5.60;99.90
20400;DHT22;10359;53.596;22.520;2023-03-01T10:15:09;5.60;99.90
20400;DHT22;10359;53.596;22.520;2023-03-01T10:18:04;5.40;99.90
20400;DHT22;10359;53.596;22.520;2023-03-01T10:20:58;5.60;99.90
20400;DHT22;10359;53.596;22.520;2023-03-01T10:23:51;5.50;99.90
20400;DHT22;10359;53.596;22.520;2023-03-01T10:26:48;5.50;99.90
20400;DHT22;10359;53.596;22.520;2023-03-01T10:29:48;5.50;99.90
20400;DHT22;10359;53.596;22.520;2023-03-01T10:32:40;5.60;99.90
20400;DHT22;10359;53.596;22.520;2023-03-01T10:35:33;5.60;99.90
20400;DHT22;10359;53.596;22.520;2023-03-01T10:38:24;5.50;99.90
20400;DHT22;10359;53.596;22.520;2023-03-01T10:41:15;5.50;99.90
20400;DHT22;10359;53.596;22.520;2023-03-01T10:44:05;5.60;99.90
20400;DHT22;10359;53.596;22.520;2023-03-01T10:47:00;5.50;99.90
20400;DHT22;10359;53.596;22.520;2023-03-01T10:50:00;5.60;99.90
20400;DHT22;10359;53.596;22.520;2023-03-01T10:53:00;5.40;99.90
20400;DHT22;10359;53.596;22.520;2023-03-01T10:56:04;5.40;99.90
20400;DHT22;10359;53.596;22.520;2023-03-01T10:58:58;5.50;99.90
20400;DHT22;10359;53.596;22.520;2023-03-01T11:02:02;5.70;99.90
20400;DHT22;10359;53.596;22.520;2023-03-01T11:09:14;5.60;99.90
20400;DHT22;10359;53.596;22.520;2023-03-01T11:12:11;5.90;99.90
20400;DHT22;10359;53.596;22.520;2023-03-01T11:15:28;6.00;99.90
20400;DHT22;10359;53.596;22.520;2023-03-01T11:18:35;6.20;99.90
20400;DHT22;10359;53.596;22.520;2023-03-01T11:21:38;6.10;99.90
20400;DHT22;10359;53.596;22.520;2023-03-01T11:24:37;6.10;99.90
20400;DHT22;10359;53.596;22.520;2023-03-01T11:27:32;6.10;99.90
20400;DHT22;10359;53.596;22.520;2023-03-01T11:30:28;6.40;99.90
20400;DHT22;10359;53.596;22.520;2023-03-01T11:33:28;6.10;99.90
20400;DHT22;10359;53.596;22.520;2023-03-01T11:36:28;6.20;99.90
20400;DHT22;10359;53.596;22.520;2023-03-01T11:39:26;6.30;99.90
20400;DHT22;10359;53.596;22.520;2023-03-01T11:42:23;6.30;99.90
20400;DHT22;10359;53.596;22.520;2023-03-01T11:45:14;6.40;99.90
20400;DHT22;10359;53.596;22.520;2023-03-01T11:48:21;6.40;99.90
20400;DHT22;10359;53.596;22.520;2023-03-01T11:51:44;6.60;99.90
20400;DHT22;10359;53.596;22.520;2023-03-01T11:54:47;6.40;99.90
20400;DHT22;10359;53.596;22.520;2023-03-01T11:57:55;6.50;99.90
20400;DHT22;10359;53.596;22.520;2023-03-01T12:00:58;6.20;99.90
20400;DHT22;10359;53.596;22.520;2023-03-01T12:04:11;6.40;99.90
20400;DHT22;10359;53.596;22.520;2023-03-01T12:07:07;6.40;99.90
20400;DHT22;10359;53.596;22.520;2023-03-01T12:10:23;6.40;99.90
20400;DHT22;10359;53.596;22.520;2023-03-01T12:13:44;6.40;99.90
20400;DHT22;10359;53.596;22.520;2023-03-01T12:16:47;6.60;99.90
20400;DHT22;10359;53.596;22.520;2023-03-01T12:20:07;6.80;99.90
20400;DHT22;10359;53.596;22.520;2023-03-01T12:23:24;7.00;99.90
20400;DHT22;10359;53.596;22.520;2023-03-01T12:26:31;6.90;99.90
20400;DHT22;10359;53.596;22.520;2023-03-01T12:29:31;6.80;99.90
20400;DHT22;10359;53.596;22.520;2023-03-01T12:32:34;6.30;99.90
20400;DHT22;10359;53.596;22.520;2023-03-01T12:35:42;6.70;99.90
20400;DHT22;10359;53.596;22.520;2023-03-01T12:38:41;6.40;99.90
20400;DHT22;10359;53.596;22.520;2023-03-01T12:41:43;6.40;99.90
20400;DHT22;10359;53.596;22.520;2023-03-01T12:45:09;6.40;99.90
20400;DHT22;10359;53.596;22.520;2023-03-01T12:48:13;6.30;99.90
20400;DHT22;10359;53.596;22.520;2023-03-01T12:51:10;6.10;99.90
20400;DHT22;10359;53.596;22.520;2023-03-01T12:54:11;6.40;99.90
20400;DHT22;10359;53.596;22.520;2023-03-01T12:57:09;6.30;99.90
20400;DHT22;10359;53.596;22.520;2023-03-01T13:00:17;5.90;99.90
20400;DHT22;10359;53.596;22.520;2023-03-01T13:03:19;5.90;99.90
20400;DHT22;10359;53.596;22.520;2023-03-01T13:06:21;5.80;99.90
20400;DHT22;10359;53.596;22.520;2023-03-01T13:09:29;5.90;99.90
20400;DHT22;10359;53.596;22.520;2023-03-01T13:12:42;5.70;99.90
20400;DHT22;10359;53.596;22.520;2023-03-01T13:15:37;5.60;99.90
20400;DHT22;10359;53.596;22.520;2023-03-01T13:18:32;5.30;99.90
20400;DHT22;10359;53.596;22.520;2023-03-01T13:21:30;5.60;99.90
20400;DHT22;10359;53.596;22.520;2023-03-01T13:24:26;5.30;99.90
20400;DHT22;10359;53.596;22.520;2023-03-01T13:27:23;5.20;99.90
20400;DHT22;10359;53.596;22.520;2023-03-01T13:30:41;5.10;99.90
20400;DHT22;10359;53.596;22.520;2023-03-01T13:33:43;5.30;99.90
20400;DHT22;10359;53.596;22.520;2023-03-01T13:36:48;5.40;99.90
20400;DHT22;10359;53.596;22.520;2023-03-01T13:39:40;5.50;99.90
20400;DHT22;10359;53.596;22.520;2023-03-01T13:42:44;5.30;99.90
20400;DHT22;10359;53.596;22.520;2023-03-01T13:45:52;5.40;99.90
20400;DHT22;10359;53.596;22.520;2023-03-01T13:48:44;5.30;99.90
20400;DHT22;10359;53.596;22.520;2023-03-01T13:51:35;5.30;99.90
20400;DHT22;10359;53.596;22.520;2023-03-01T13:54:29;5.30;99.90
20400;DHT22;10359;53.596;22.520;2023-03-01T13:57:22;5.10;99.90
20400;DHT22;10359;53.596;22.520;2023-03-01T14:00:27;4.90;99.90
20400;DHT22;10359;53.596;22.520;2023-03-01T14:03:20;4.80;99.90
20400;DHT22;10359;53.596;22.520;2023-03-01T14:06:14;4.70;99.90
20400;DHT22;10359;53.596;22.520;2023-03-01T14:09:14;4.70;99.90
20400;DHT22;10359;53.596;22.520;2023-03-01T14:12:18;4.70;99.90
20400;DHT22;10359;53.596;22.520;2023-03-01T14:15:18;4.80;99.90
20400;DHT22;10359;53.596;22.520;2023-03-01T14:18:10;4.80;99.90
20400;DHT22;10359;53.596;22.520;2023-03-01T14:21:08;4.50;99.90
20400;DHT22;10359;53.596;22.520;2023-03-01T14:23:58;4.40;99.90
20400;DHT22;10359;53.596;22.520;2023-03-01T14:26:49;4.30;99.90
20400;DHT22;10359;53.596;22.520;2023-03-01T14:29:40;4.10;99.90
20400;DHT22;10359;53.596;22.520;2023-03-01T14:32:31;4.10;99.90
20400;DHT22;10359;53.596;22.520;2023-03-01T14:35:22;4.00;99.90
20400;DHT22;10359;53.596;22.520;2023-03-01T14:38:22;3.80;99.90
20400;DHT22;10359;53.596;22.520;2023-03-01T14:41:15;3.70;99.90
20400;DHT22;10359;53.596;22.520;2023-03-01T14:44:11;3.70;99.90
20400;DHT22;10359;53.596;22.520;2023-03-01T14:47:01;3.80;99.90
20400;DHT22;10359;53.596;22.520;2023-03-01T14:49:56;3.70;99.90
20400;DHT22;10359;53.596;22.520;2023-03-01T14:52:48;3.60;99.90
20400;DHT22;10359;53.596;22.520;2023-03-01T14:55:42;3.40;99.90
20400;DHT22;10359;53.596;22.520;2023-03-01T14:58:34;3.40;99.90
20400;DHT22;10359;53.596;22.520;2023-03-01T15:01:24;3.40;99.90
20400;DHT22;10359;53.596;22.520;2023-03-01T15:04:14;3.40;99.90
20400;DHT22;10359;53.596;22.520;2023-03-01T15:07:04;3.30;99.90
20400;DHT22;10359;53.596;22.520;2023-03-01T15:09:54;3.20;1.00
20400;DHT22;10359;53.596;22.520;2023-03-01T15:12:46;3.10;1.00
20400;DHT22;10359;53.596;22.520;2023-03-01T15:15:39;3.00;1.00
20400;DHT22;10359;53.596;22.520;2023-03-01T15:18:31;3.00;1.00
20400;DHT22;10359;53.596;22.520;2023-03-01T15:21:23;2.90;1.00
20400;DHT22;10359;53.596;22.520;2023-03-01T15:24:18;2.90;1.00
20400;DHT22;10359;53.596;22.520;2023-03-01T15:27:15;2.90;1.00
20400;DHT22;10359;53.596;22.520;2023-03-01T15:30:17;2.80;1.00
20400;DHT22;10359;53.596;22.520;2023-03-01T15:33:20;2.80;1.00
20400;DHT22;10359;53.596;22.520;2023-03-01T15:36:32;2.90;1.00
20400;DHT22;10359;53.596;22.520;2023-03-01T15:39:38;2.90;1.00
20400;DHT22;10359;53.596;22.520;2023-03-01T15:42:45;2.70;1.00
20400;DHT22;10359;53.596;22.520;2023-03-01T15:45:37;2.60;1.00
20400;DHT22;10359;53.596;22.520;2023-03-01T15:48:35;2.70;1.00
20400;DHT22;10359;53.596;22.520;2023-03-01T15:51:34;2.70;1.00
20400;DHT22;10359;53.596;22.520;2023-03-01T15:54:26;2.70;1.00
20400;DHT22;10359;53.596;22.520;2023-03-01T15:57:19;2.70;1.00
20400;DHT22;10359;53.596;22.520;2023-03-01T16:00:11;2.60;1.00
20400;DHT22;10359;53.596;22.520;2023-03-01T16:03:04;2.60;1.00
20400;DHT22;10359;53.596;22.520;2023-03-01T16:05:55;2.60;1.00
20400;DHT22;10359;53.596;22.520;2023-03-01T16:08:46;2.60;1.00
20400;DHT22;10359;53.596;22.520;2023-03-01T16:11:36;2.60;1.00
20400;DHT22;10359;53.596;22.520;2023-03-01T16:14:29;2.50;1.00
20400;DHT22;10359;53.596;22.520;2023-03-01T16:17:19;2.50;1.00
20400;DHT22;10359;53.596;22.520;2023-03-01T16:20:13;2.50;1.00
20400;DHT22;10359;53.596;22.520;2023-03-01T16:23:15;2.50;1.00
20400;DHT22;10359;53.596;22.520;2023-03-01T16:26:05;2.40;1.00
20400;DHT22;10359;53.596;22.520;2023-03-01T16:28:56;2.40;1.00
20400;DHT22;10359;53.596;22.520;2023-03-01T16:31:47;2.50;1.00
20400;DHT22;10359;53.596;22.520;2023-03-01T16:34:38;2.50;1.00
20400;DHT22;10359;53.596;22.520;2023-03-01T16:37:34;2.60;1.00
20400;DHT22;10359;53.596;22.520;2023-03-01T16:40:26;2.50;1.00
20400;DHT22;10359;53.596;22.520;2023-03-01T16:43:19;2.40;1.00
20400;DHT22;10359;53.596;22.520;2023-03-01T16:46:11;2.50;1.00
20400;DHT22;10359;53.596;22.520;2023-03-01T16:49:01;2.50;1.00
20400;DHT22;10359;53.596;22.520;2023-03-01T16:51:53;2.50;1.00
20400;DHT22;10359;53.596;22.520;2023-03-01T16:54:44;2.60;1.00
20400;DHT22;10359;53.596;22.520;2023-03-01T16:57:35;2.50;1.00
20400;DHT22;10359;53.596;22.520;2023-03-01T17:00:26;2.60;1.00
20400;DHT22;10359;53.596;22.520;2023-03-01T17:03:16;2.60;1.00
20400;DHT22;10359;53.596;22.520;2023-03-01T17:06:09;2.60;1.00
20400;DHT22;10359;53.596;22.520;2023-03-01T17:09:00;2.70;1.00
20400;DHT22;10359;53.596;22.520;2023-03-01T17:11:53;2.60;1.00
20400;DHT22;10359;53.596;22.520;2023-03-01T17:14:45;2.60;1.00
20400;DHT22;10359;53.596;22.520;2023-03-01T17:17:38;2.60;1.00
20400;DHT22;10359;53.596;22.520;2023-03-01T17:20:27;2.70;1.00
20400;DHT22;10359;53.596;22.520;2023-03-01T17:23:18;2.60;1.00
20400;DHT22;10359;53.596;22.520;2023-03-01T17:26:08;2.60;1.00
20400;DHT22;10359;53.596;22.520;2023-03-01T17:28:59;2.60;1.00
20400;DHT22;10359;53.596;22.520;2023-03-01T17:31:51;2.60;1.00
20400;DHT22;10359;53.596;22.520;2023-03-01T17:34:46;2.40;1.00
20400;DHT22;10359;53.596;22.520;2023-03-01T17:37:37;2.50;1.00
20400;DHT22;10359;53.596;22.520;2023-03-01T17:40:34;2.50;1.00
20400;DHT22;10359;53.596;22.520;2023-03-01T17:43:27;2.60;1.00
20400;DHT22;10359;53.596;22.520;2023-03-01T17:46:20;2.50;1.00
20400;DHT22;10359;53.596;22.520;2023-03-01T17:49:12;2.50;1.00
20400;DHT22;10359;53.596;22.520;2023-03-01T17:52:05;2.50;1.00
20400;DHT22;10359;53.596;22.520;2023-03-01T17:54:55;2.60;1.00
20400;DHT22;10359;53.596;22.520;2023-03-01T17:57:50;2.50;1.00
20400;DHT22;10359;53.596;22.520;2023-03-01T18:00:44;2.50;1.00
20400;DHT22;10359;53.596;22.520;2023-03-01T18:03:37;2.50;1.00
20400;DHT22;10359;53.596;22.520;2023-03-01T18:06:29;2.50;1.00
20400;DHT22;10359;53.596;22.520;2023-03-01T18:09:20;2.60;1.00
20400;DHT22;10359;53.596;22.520;2023-03-01T18:12:11;2.60;1.00
20400;DHT22;10359;53.596;22.520;2023-03-01T18:15:02;2.50;1.00
20400;DHT22;10359;53.596;22.520;2023-03-01T18:17:55;2.60;1.00
20400;DHT22;10359;53.596;22.520;2023-03-01T18:20:56;2.40;1.00
20400;DHT22;10359;53.596;22.520;2023-03-01T18:23:48;2.40;1.00
20400;DHT22;10359;53.596;22.520;2023-03-01T18:26:48;2.50;1.00
20400;DHT22;10359;53.596;22.520;2023-03-01T18:29:38;2.60;1.00
20400;DHT22;10359;53.596;22.520;2023-03-01T18:32:28;2.60;1.00
20400;DHT22;10359;53.596;22.520;2023-03-01T18:35:20;2.60;1.00